sensor_id;sensor_type;location;lat;lon;timestamp;pressure;altitude;pressure_sealevel;temperature;humidity
4858;BME280;58975;51.978;8.472;2023-05-29T00:00:11;100862.94;;;10.73;100.00
4858;BME280;58975;51.978;8.472;2023-05-29T00:05:10;100863.84;;;10.61;100.00
4858;BME280;58975;51.978;8.472;2023-05-29T00:10:08;100876.88;;;10.53;100.00
4858;BME280;58975;51.978;8.472;2023-05-29T00:15:05;100869.66;;;10.42;100.00
4858;BME280;58975;51.978;8.472;2023-05-29T00:20:03;100885.84;;;10.39;100.00
4858;BME280;58975;51.978;8.472;2023-05-29T00:25:04;100886.75;;;10.27;100.00
4858;BME280;58975;51.978;8.472;2023-05-29T00:30:03;100889.28;;;10.16;100.00
4858;BME280;58975;51.978;8.472;2023-05-29T00:35:00;100897.69;;;10.10;100.00
4858;BME280;58975;51.978;8.472;2023-05-29T00:39:56;100915.91;;;10.03;100.00
4858;BME280;58975;51.978;8.472;2023-05-29T00:44:53;100924.84;;;9.89;100.00
4858;BME280;58975;51.978;8.472;2023-05-29T00:49:49;100926.22;;;9.82;100.00
4858;BME280;58975;51.978;8.472;2023-05-29T00:54:47;100942.72;;;9.75;100.00
4858;BME280;58975;51.978;8.472;2023-05-29T00:59:45;100932.06;;;9.62;100.00
4858;BME280;58975;51.978;8.472;2023-05-29T01:04:44;100933.53;;;9.54;100.00
4858;BME280;58975;51.978;8.472;2023-05-29T01:09:41;100928.72;;;9.46;100.00
4858;BME280;58975;51.978;8.472;2023-05-29T01:25:11;100929.53;;;9.34;100.00
4858;BME280;58975;51.978;8.472;2023-05-29T01:30:09;100930.19;;;9.25;100.00
4858;BME280;58975;51.978;8.472;2023-05-29T01:35:07;100936.31;;;9.25;100.00
4858;BME280;58975;51.978;8.472;2023-05-29T01:40:04;100933.88;;;9.22;100.00
4858;BME280;58975;51.978;8.472;2023-05-29T01:45:02;100938.66;;;9.17;100.00
4858;BME280;58975;51.978;8.472;2023-05-29T01:50:03;100936.81;;;9.18;100.00
4858;BME280;58975;51.978;8.472;2023-05-29T01:55:00;100945.97;;;9.14;100.00
4858;BME280;58975;51.978;8.472;2023-05-29T01:59:57;100931.28;;;9.08;100.00
4858;BME280;58975;51.978;8.472;2023-05-29T02:04:53;100939.34;;;9.07;100.00
4858;BME280;58975;51.978;8.472;2023-05-29T02:09:50;100931.50;;;9.05;100.00
4858;BME280;58975;51.978;8.472;2023-05-29T02:14:46;100925.41;;;9.03;100.00
4858;BME280;58975;51.978;8.472;2023-05-29T02:19:42;100944.88;;;9.03;100.00
4858;BME280;58975;51.978;8.472;2023-05-29T02:24:39;100941.78;;;8.97;100.00
4858;BME280;58975;51.978;8.472;2023-05-29T02:29:35;100964.06;;;8.94;100.00
4858;BME280;58975;51.978;8.472;2023-05-29T02:34:32;100960.94;;;8.88;100.00
4858;BME280;58975;51.978;8.472;2023-05-29T02:39:28;100972.63;;;8.85;100.00
4858;BME280;58975;51.978;8.472;2023-05-29T02:44:25;100987.16;;;8.80;100.00
4858;BME280;58975;51.978;8.472;2023-05-29T02:49:21;100974.28;;;8.74;100.00
4858;BME280;58975;51.978;8.472;2023-05-29T02:54:18;100987.84;;;8.69;100.00
4858;BME280;58975;51.978;8.472;2023-05-29T02:59:14;100982.63;;;8.68;100.00
4858;BME280;58975;51.978;8.472;2023-05-29T03:04:11;100989.91;;;8.64;100.00
4858;BME280;58975;51.978;8.472;2023-05-29T03:09:07;100977.69;;;8.62;100.00
4858;BME280;58975;51.978;8.472;2023-05-29T03:14:04;100981.22;;;8.62;100.00
4858;BME280;58975;51.978;8.472;2023-05-29T03:19:01;100977.88;;;8.59;100.00
4858;BME280;58975;51.978;8.472;2023-05-29T03:23:57;100984.16;;;8.58;100.00
4858;BME280;58975;51.978;8.472;2023-05-29T03:28:54;100999.22;;;8.57;100.00
4858;BME280;58975;51.978;8.472;2023-05-29T03:33:51;100996.00;;;8.52;100.00
4858;BME280;58975;51.978;8.472;2023-05-29T03:38:47;100997.72;;;8.53;100.00
4858;BME280;58975;51.978;8.472;2023-05-29T03:43:44;100993.91;;;8.57;100.00
4858;BME280;58975;51.978;8.472;2023-05-29T03:48:40;101002.06;;;8.68;100.00
4858;BME280;58975;51.978;8.472;2023-05-29T03:53:37;101004.22;;;8.76;100.00
4858;BME280;58975;51.978;8.472;2023-05-29T03:58:33;101012.19;;;8.76;100.00
4858;BME280;58975;51.978;8.472;2023-05-29T04:03:31;101019.88;;;8.80;100.00
4858;BME280;58975;51.978;8.472;2023-05-29T04:08:27;101019.88;;;8.80;100.00
4858;BME280;58975;51.978;8.472;2023-05-29T04:13:24;101030.09;;;8.86;100.00
4858;BME280;58975;51.978;8.472;2023-05-29T04:18:21;101038.25;;;8.83;100.00
4858;BME280;58975;51.978;8.472;2023-05-29T04:23:18;101047.00;;;8.85;100.00
4858;BME280;58975;51.978;8.472;2023-05-29T04:28:14;101053.81;;;8.89;100.00
4858;BME280;58975;51.978;8.472;2023-05-29T04:33:11;101055.91;;;8.84;100.00
4858;BME280;58975;51.978;8.472;2023-05-29T04:38:09;101057.22;;;8.91;100.00
4858;BME280;58975;51.978;8.472;2023-05-29T04:43:06;101066.06;;;8.92;100.00
4858;BME280;58975;51.978;8.472;2023-05-29T04:48:03;101058.16;;;9.05;100.00
4858;BME280;58975;51.978;8.472;2023-05-29T04:53:00;101059.06;;;9.18;100.00
4858;BME280;58975;51.978;8.472;2023-05-29T04:57:56;101069.13;;;9.27;100.00
4858;BME280;58975;51.978;8.472;2023-05-29T05:02:53;101072.47;;;9.16;100.00
4858;BME280;58975;51.978;8.472;2023-05-29T05:07:50;101069.13;;;9.27;100.00
4858;BME280;58975;51.978;8.472;2023-05-29T05:12:46;101065.16;;;9.20;100.00
4858;BME280;58975;51.978;8.472;2023-05-29T05:17:43;101080.53;;;9.29;100.00
4858;BME280;58975;51.978;8.472;2023-05-29T05:22:39;101081.25;;;9.31;100.00
4858;BME280;58975;51.978;8.472;2023-05-29T05:27:37;101074.00;;;9.47;100.00
4858;BME280;58975;51.978;8.472;2023-05-29T05:32:34;101079.47;;;9.58;100.00
4858;BME280;58975;51.978;8.472;2023-05-29T05:37:31;101087.19;;;9.75;100.00
4858;BME280;58975;51.978;8.472;2023-05-29T05:42:28;101092.34;;;9.91;100.00
4858;BME280;58975;51.978;8.472;2023-05-29T05:47:24;101090.88;;;10.12;100.00
4858;BME280;58975;51.978;8.472;2023-05-29T05:52:21;101100.03;;;10.08;100.00
4858;BME280;58975;51.978;8.472;2023-05-29T05:57:17;101091.25;;;10.20;100.00
4858;BME280;58975;51.978;8.472;2023-05-29T06:02:14;101092.88;;;10.48;100.00
4858;BME280;58975;51.978;8.472;2023-05-29T06:07:10;101094.69;;;10.48;100.00
4858;BME280;58975;51.978;8.472;2023-05-29T06:12:07;101095.81;;;11.07;100.00
4858;BME280;58975;51.978;8.472;2023-05-29T06:17:04;101102.03;;;11.67;100.00
4858;BME280;58975;51.978;8.472;2023-05-29T06:22:01;101097.41;;;11.46;100.00
4858;BME280;58975;51.978;8.472;2023-05-29T06:26:57;101098.13;;;11.84;100.00
4858;BME280;58975;51.978;8.472;2023-05-29T06:31:54;101116.13;;;11.93;100.00
4858;BME280;58975;51.978;8.472;2023-05-29T06:36:50;101117.19;;;12.49;100.00
4858;BME280;58975;51.978;8.472;2023-05-29T06:41:47;101120.28;;;11.97;100.00
4858;BME280;58975;51.978;8.472;2023-05-29T06:46:43;101129.50;;;12.28;100.00
4858;BME280;58975;51.978;8.472;2023-05-29T06:51:40;101130.41;;;11.68;100.00
4858;BME280;58975;51.978;8.472;2023-05-29T06:56:36;101132.00;;;11.47;100.00
4858;BME280;58975;51.978;8.472;2023-05-29T07:01:32;101144.59;;;11.69;100.00
4858;BME280;58975;51.978;8.472;2023-05-29T07:06:29;101145.06;;;11.63;100.00
4858;BME280;58975;51.978;8.472;2023-05-29T07:11:25;101143.19;;;12.23;100.00
4858;BME280;58975;51.978;8.472;2023-05-29T07:16:22;101150.44;;;12.45;100.00
4858;BME280;58975;51.978;8.472;2023-05-29T07:21:20;101153.28;;;12.31;100.00
4858;BME280;58975;51.978;8.472;2023-05-29T07:26:17;101149.63;;;12.21;100.00
4858;BME280;58975;51.978;8.472;2023-05-29T07:31:13;101156.50;;;12.47;100.00
4858;BME280;58975;51.978;8.472;2023-05-29T07:36:10;101159.03;;;12.95;100.00
4858;BME280;58975;51.978;8.472;2023-05-29T07:41:07;101161.69;;;12.95;100.00
4858;BME280;58975;51.978;8.472;2023-05-29T07:46:03;101170.50;;;13.19;100.00
4858;BME280;58975;51.978;8.472;2023-05-29T07:51:00;101167.09;;;13.50;100.00
4858;BME280;58975;51.978;8.472;2023-05-29T07:55:57;101170.97;;;14.32;100.00
4858;BME280;58975;51.978;8.472;2023-05-29T08:00:54;101169.75;;;14.68;100.00
4858;BME280;58975;51.978;8.472;2023-05-29T08:05:50;101167.50;;;14.52;100.00
4858;BME280;58975;51.978;8.472;2023-05-29T08:10:47;101169.06;;;14.55;100.00
4858;BME280;58975;51.978;8.472;2023-05-29T08:15:43;101182.44;;;14.34;100.00
4858;BME280;58975;51.978;8.472;2023-05-29T08:20:40;101175.06;;;14.47;100.00
4858;BME280;58975;51.978;8.472;2023-05-29T08:25:36;101171.16;;;13.88;100.00
4858;BME280;58975;51.978;8.472;2023-05-29T08:30:33;101169.88;;;14.46;100.00
4858;BME280;58975;51.978;8.472;2023-05-29T08:35:29;101168.75;;;14.16;100.00
4858;BME280;58975;51.978;8.472;2023-05-29T08:40:26;101175.19;;;14.78;100.00
4858;BME280;58975;51.978;8.472;2023-05-29T08:45:24;101174.25;;;14.15;100.00
4858;BME280;58975;51.978;8.472;2023-05-29T08:50:21;101174.56;;;14.21;100.00
4858;BME280;58975;51.978;8.472;2023-05-29T08:55:18;101171.16;;;15.23;100.00
4858;BME280;58975;51.978;8.472;2023-05-29T09:00:15;101172.28;;;15.91;100.00
4858;BME280;58975;51.978;8.472;2023-05-29T09:05:12;101176.03;;;14.57;100.00
4858;BME280;58975;51.978;8.472;2023-05-29T09:10:09;101180.72;;;14.33;100.00
4858;BME280;58975;51.978;8.472;2023-05-29T09:15:22;101181.03;;;15.13;100.00
4858;BME280;58975;51.978;8.472;2023-05-29T09:20:20;101181.72;;;14.85;100.00
4858;BME280;58975;51.978;8.472;2023-05-29T09:25:23;101180.59;;;15.48;100.00
4858;BME280;58975;51.978;8.472;2023-05-29T09:30:43;101190.03;;;15.73;100.00
4858;BME280;58975;51.978;8.472;2023-05-29T09:40:38;101187.25;;;14.72;100.00
4858;BME280;58975;51.978;8.472;2023-05-29T09:45:37;101179.59;;;15.49;100.00
4858;BME280;58975;51.978;8.472;2023-05-29T09:50:34;101187.66;;;15.49;100.00
4858;BME280;58975;51.978;8.472;2023-05-29T09:55:32;101178.53;;;16.59;100.00
4858;BME280;58975;51.978;8.472;2023-05-29T10:00:30;101177.34;;;16.90;97.97
4858;BME280;58975;51.978;8.472;2023-05-29T10:05:27;101164.50;;;15.97;96.88
4858;BME280;58975;51.978;8.472;2023-05-29T10:10:25;101166.03;;;16.00;100.00
4858;BME280;58975;51.978;8.472;2023-05-29T10:15:23;101165.94;;;16.30;94.61
4858;BME280;58975;51.978;8.472;2023-05-29T10:20:20;101165.47;;;16.83;98.05
4858;BME280;58975;51.978;8.472;2023-05-29T10:25:20;101154.88;;;16.72;92.25
4858;BME280;58975;51.978;8.472;2023-05-29T10:35:37;101159.28;;;16.15;87.73
4858;BME280;58975;51.978;8.472;2023-05-29T10:40:36;101170.19;;;16.62;95.35
4858;BME280;58975;51.978;8.472;2023-05-29T10:50:44;101158.69;;;16.79;89.36
4858;BME280;58975;51.978;8.472;2023-05-29T10:55:41;101146.75;;;16.91;88.21
4858;BME280;58975;51.978;8.472;2023-05-29T11:00:40;101150.03;;;17.86;85.84
4858;BME280;58975;51.978;8.472;2023-05-29T11:06:00;101149.97;;;18.13;83.71
4858;BME280;58975;51.978;8.472;2023-05-29T11:11:02;101150.34;;;18.54;79.76
4858;BME280;58975;51.978;8.472;2023-05-29T11:26:30;101138.16;;;17.24;83.30
4858;BME280;58975;51.978;8.472;2023-05-29T11:31:31;101131.38;;;17.20;85.77
4858;BME280;58975;51.978;8.472;2023-05-29T11:36:30;101139.69;;;17.64;82.35
4858;BME280;58975;51.978;8.472;2023-05-29T11:41:27;101133.34;;;17.18;82.71
4858;BME280;58975;51.978;8.472;2023-05-29T11:46:24;101136.94;;;17.91;80.78
4858;BME280;58975;51.978;8.472;2023-05-29T11:51:22;101122.25;;;18.47;75.67
4858;BME280;58975;51.978;8.472;2023-05-29T11:56:19;101124.28;;;19.22;74.45
4858;BME280;58975;51.978;8.472;2023-05-29T12:01:16;101124.16;;;18.28;71.90
4858;BME280;58975;51.978;8.472;2023-05-29T12:06:13;101124.16;;;17.93;74.13
4858;BME280;58975;51.978;8.472;2023-05-29T12:11:09;101125.84;;;17.94;74.79
4858;BME280;58975;51.978;8.472;2023-05-29T12:16:06;101125.91;;;18.55;77.57
4858;BME280;58975;51.978;8.472;2023-05-29T12:21:03;101123.22;;;18.37;75.75
4858;BME280;58975;51.978;8.472;2023-05-29T12:26:04;101127.19;;;18.95;71.87
4858;BME280;58975;51.978;8.472;2023-05-29T12:31:01;101113.47;;;19.48;76.42
4858;BME280;58975;51.978;8.472;2023-05-29T12:36:16;101108.41;;;19.19;71.64
4858;BME280;58975;51.978;8.472;2023-05-29T12:41:27;101118.94;;;18.70;74.21
4858;BME280;58975;51.978;8.472;2023-05-29T12:46:25;101109.94;;;18.87;71.56
4858;BME280;58975;51.978;8.472;2023-05-29T12:51:26;101113.31;;;18.64;72.70
4858;BME280;58975;51.978;8.472;2023-05-29T12:56:24;101104.97;;;18.75;72.96
4858;BME280;58975;51.978;8.472;2023-05-29T13:01:22;101105.78;;;18.50;78.57
4858;BME280;58975;51.978;8.472;2023-05-29T13:06:20;101103.69;;;18.87;71.56
4858;BME280;58975;51.978;8.472;2023-05-29T13:11:17;101111.16;;;19.69;73.83
4858;BME280;58975;51.978;8.472;2023-05-29T13:16:14;101111.94;;;19.11;71.56
4858;BME280;58975;51.978;8.472;2023-05-29T13:21:10;101108.13;;;19.64;70.86
4858;BME280;58975;51.978;8.472;2023-05-29T13:26:07;101112.59;;;19.05;69.98
4858;BME280;58975;51.978;8.472;2023-05-29T13:31:04;101112.28;;;18.21;71.42
4858;BME280;58975;51.978;8.472;2023-05-29T13:36:00;101110.44;;;18.04;78.22
4858;BME280;58975;51.978;8.472;2023-05-29T13:40:57;101111.88;;;18.52;72.19
4858;BME280;58975;51.978;8.472;2023-05-29T13:45:53;101108.47;;;18.06;72.36
4858;BME280;58975;51.978;8.472;2023-05-29T13:50:50;101104.38;;;18.02;71.42
4858;BME280;58975;51.978;8.472;2023-05-29T13:55:46;101100.75;;;18.72;71.57
4858;BME280;58975;51.978;8.472;2023-05-29T14:00:43;101101.53;;;19.24;66.53
4858;BME280;58975;51.978;8.472;2023-05-29T14:05:39;101105.19;;;18.38;64.63
4858;BME280;58975;51.978;8.472;2023-05-29T14:10:36;101099.28;;;18.86;62.29
4858;BME280;58975;51.978;8.472;2023-05-29T14:15:32;101098.91;;;18.73;61.99
4858;BME280;58975;51.978;8.472;2023-05-29T14:20:29;101107.28;;;19.63;59.97
4858;BME280;58975;51.978;8.472;2023-05-29T14:25:26;101097.09;;;18.56;57.45
4858;BME280;58975;51.978;8.472;2023-05-29T14:30:22;101100.13;;;18.17;56.13
4858;BME280;58975;51.978;8.472;2023-05-29T14:35:19;101093.03;;;18.16;56.22
4858;BME280;58975;51.978;8.472;2023-05-29T14:40:15;101097.31;;;18.44;55.56
4858;BME280;58975;51.978;8.472;2023-05-29T14:45:11;101100.16;;;19.20;53.41
4858;BME280;58975;51.978;8.472;2023-05-29T14:50:09;101090.16;;;19.47;50.62
4858;BME280;58975;51.978;8.472;2023-05-29T14:55:06;101095.31;;;19.74;50.51
4858;BME280;58975;51.978;8.472;2023-05-29T15:00:03;101082.00;;;18.97;46.88
4858;BME280;58975;51.978;8.472;2023-05-29T15:05:02;101081.72;;;19.08;45.00
4858;BME280;58975;51.978;8.472;2023-05-29T15:09:59;101079.03;;;19.50;46.23
4858;BME280;58975;51.978;8.472;2023-05-29T15:14:56;101080.25;;;19.21;46.46
4858;BME280;58975;51.978;8.472;2023-05-29T15:19:52;101070.06;;;19.07;45.34
4858;BME280;58975;51.978;8.472;2023-05-29T15:24:49;101084.03;;;18.69;46.33
4858;BME280;58975;51.978;8.472;2023-05-29T15:29:45;101080.31;;;19.37;46.16
4858;BME280;58975;51.978;8.472;2023-05-29T15:34:41;101078.63;;;19.36;44.42
4858;BME280;58975;51.978;8.472;2023-05-29T15:39:38;101053.00;;;19.41;44.62
4858;BME280;58975;51.978;8.472;2023-05-29T15:44:35;101070.53;;;19.03;46.26
4858;BME280;58975;51.978;8.472;2023-05-29T15:49:33;101065.19;;;19.11;45.38
4858;BME280;58975;51.978;8.472;2023-05-29T15:54:29;101074.69;;;18.37;49.10
4858;BME280;58975;51.978;8.472;2023-05-29T15:59:26;101064.81;;;18.46;51.04
4858;BME280;58975;51.978;8.472;2023-05-29T16:04:22;101063.41;;;19.86;50.61
4858;BME280;58975;51.978;8.472;2023-05-29T16:09:19;101063.47;;;19.10;50.15
4858;BME280;58975;51.978;8.472;2023-05-29T16:14:16;101080.56;;;19.18;50.60
4858;BME280;58975;51.978;8.472;2023-05-29T16:19:13;101059.78;;;19.61;51.05
4858;BME280;58975;51.978;8.472;2023-05-29T16:24:09;101059.59;;;20.92;48.98
4858;BME280;58975;51.978;8.472;2023-05-29T16:29:06;101061.66;;;19.68;49.94
4858;BME280;58975;51.978;8.472;2023-05-29T16:34:03;101083.09;;;19.12;49.74
4858;BME280;58975;51.978;8.472;2023-05-29T16:39:01;101074.34;;;19.60;47.04
4858;BME280;58975;51.978;8.472;2023-05-29T16:43:57;101060.53;;;19.87;46.00
4858;BME280;58975;51.978;8.472;2023-05-29T16:48:54;101079.63;;;19.86;46.16
4858;BME280;58975;51.978;8.472;2023-05-29T16:53:50;101081.56;;;19.51;47.41
4858;BME280;58975;51.978;8.472;2023-05-29T16:58:46;101075.09;;;21.14;42.23
4858;BME280;58975;51.978;8.472;2023-05-29T17:03:43;101079.66;;;20.50;44.56
4858;BME280;58975;51.978;8.472;2023-05-29T17:08:40;101065.53;;;23.44;40.81
4858;BME280;58975;51.978;8.472;2023-05-29T17:13:36;101060.59;;;24.32;38.58
4858;BME280;58975;51.978;8.472;2023-05-29T17:18:33;101079.81;;;23.67;38.86
4858;BME280;58975;51.978;8.472;2023-05-29T17:23:29;101075.44;;;24.09;40.50
4858;BME280;58975;51.978;8.472;2023-05-29T17:28:26;101083.78;;;24.77;37.51
4858;BME280;58975;51.978;8.472;2023-05-29T17:33:22;101080.47;;;24.26;39.36
4858;BME280;58975;51.978;8.472;2023-05-29T17:38:18;101083.78;;;23.86;39.82
4858;BME280;58975;51.978;8.472;2023-05-29T17:43:15;101091.59;;;22.80;40.94
4858;BME280;58975;51.978;8.472;2023-05-29T17:48:12;101085.31;;;22.42;42.81
4858;BME280;58975;51.978;8.472;2023-05-29T17:53:08;101106.03;;;21.89;42.71
4858;BME280;58975;51.978;8.472;2023-05-29T17:58:04;101097.97;;;21.11;44.25
4858;BME280;58975;51.978;8.472;2023-05-29T18:03:03;101103.88;;;19.61;47.23
4858;BME280;58975;51.978;8.472;2023-05-29T18:08:00;101111.53;;;18.11;50.59
4858;BME280;58975;51.978;8.472;2023-05-29T18:12:57;101113.34;;;16.93;54.34
4858;BME280;58975;51.978;8.472;2023-05-29T18:17:53;101123.44;;;16.72;56.55
4858;BME280;58975;51.978;8.472;2023-05-29T18:22:49;101132.41;;;17.37;58.25
4858;BME280;58975;51.978;8.472;2023-05-29T18:27:46;101133.38;;;16.52;58.53
4858;BME280;58975;51.978;8.472;2023-05-29T18:32:42;101136.34;;;15.82;59.38
4858;BME280;58975;51.978;8.472;2023-05-29T18:37:39;101141.44;;;15.85;60.03
4858;BME280;58975;51.978;8.472;2023-05-29T18:42:35;101145.38;;;15.81;60.19
4858;BME280;58975;51.978;8.472;2023-05-29T18:47:32;101135.78;;;16.46;56.02
4858;BME280;58975;51.978;8.472;2023-05-29T18:52:29;101137.13;;;17.52;54.21
4858;BME280;58975;51.978;8.472;2023-05-29T18:57:26;101127.56;;;17.95;52.28
4858;BME280;58975;51.978;8.472;2023-05-29T19:02:22;101140.47;;;18.09;51.38
4858;BME280;58975;51.978;8.472;2023-05-29T19:07:18;101136.34;;;16.49;53.98
4858;BME280;58975;51.978;8.472;2023-05-29T19:12:15;101146.47;;;15.59;56.78
4858;BME280;58975;51.978;8.472;2023-05-29T19:17:12;101152.97;;;14.55;58.49
4858;BME280;58975;51.978;8.472;2023-05-29T19:22:08;101161.94;;;14.12;61.03
4858;BME280;58975;51.978;8.472;2023-05-29T19:27:05;101157.19;;;13.73;59.31
4858;BME280;58975;51.978;8.472;2023-05-29T19:32:03;101161.47;;;13.53;59.59
4858;BME280;58975;51.978;8.472;2023-05-29T19:37:00;101157.38;;;13.38;59.05
4858;BME280;58975;51.978;8.472;2023-05-29T19:41:56;101164.53;;;13.26;59.87
4858;BME280;58975;51.978;8.472;2023-05-29T19:46:53;101179.75;;;13.15;61.19
4858;BME280;58975;51.978;8.472;2023-05-29T19:51:51;101177.50;;;12.98;62.99
4858;BME280;58975;51.978;8.472;2023-05-29T19:56:55;101194.13;;;12.79;65.04
4858;BME280;58975;51.978;8.472;2023-05-29T20:01:51;101191.59;;;12.77;66.54
4858;BME280;58975;51.978;8.472;2023-05-29T20:06:48;101198.31;;;12.59;67.96
4858;BME280;58975;51.978;8.472;2023-05-29T20:11:44;101209.72;;;12.50;70.95
4858;BME280;58975;51.978;8.472;2023-05-29T20:16:41;101221.78;;;12.32;75.19
4858;BME280;58975;51.978;8.472;2023-05-29T20:21:37;101221.81;;;12.19;81.65
4858;BME280;58975;51.978;8.472;2023-05-29T20:26:34;101219.84;;;12.10;87.72
4858;BME280;58975;51.978;8.472;2023-05-29T20:31:30;101231.22;;;12.01;94.03
4858;BME280;58975;51.978;8.472;2023-05-29T20:36:27;101232.66;;;11.81;100.00
4858;BME280;58975;51.978;8.472;2023-05-29T20:41:26;101247.63;;;11.71;100.00
4858;BME280;58975;51.978;8.472;2023-05-29T20:46:22;101246.34;;;11.52;100.00
4858;BME280;58975;51.978;8.472;2023-05-29T20:51:19;101241.75;;;11.41;100.00
4858;BME280;58975;51.978;8.472;2023-05-29T20:56:15;101249.16;;;11.12;100.00
4858;BME280;58975;51.978;8.472;2023-05-29T21:01:15;101249.75;;;10.90;100.00
4858;BME280;58975;51.978;8.472;2023-05-29T21:06:12;101264.03;;;10.77;100.00
4858;BME280;58975;51.978;8.472;2023-05-29T21:11:09;101266.78;;;10.75;100.00
4858;BME280;58975;51.978;8.472;2023-05-29T21:16:05;101254.22;;;10.65;100.00
4858;BME280;58975;51.978;8.472;2023-05-29T21:21:02;101257.38;;;10.57;100.00
4858;BME280;58975;51.978;8.472;2023-05-29T21:25:59;101250.00;;;10.48;100.00
4858;BME280;58975;51.978;8.472;2023-05-29T21:30:55;101243.91;;;10.33;100.00
4858;BME280;58975;51.978;8.472;2023-05-29T21:35:53;101244.03;;;10.18;100.00
4858;BME280;58975;51.978;8.472;2023-05-29T21:40:50;101256.09;;;10.09;100.00
4858;BME280;58975;51.978;8.472;2023-05-29T21:45:46;101256.69;;;10.00;100.00
4858;BME280;58975;51.978;8.472;2023-05-29T21:50:43;101265.16;;;9.92;100.00
4858;BME280;58975;51.978;8.472;2023-05-29T21:55:40;101267.38;;;9.86;100.00
4858;BME280;58975;51.978;8.472;2023-05-29T22:00:37;101273.38;;;9.75;100.00
4858;BME280;58975;51.978;8.472;2023-05-29T22:05:33;101273.56;;;9.72;100.00
4858;BME280;58975;51.978;8.472;2023-05-29T22:10:30;101274.06;;;9.50;100.00
4858;BME280;58975;51.978;8.472;2023-05-29T22:15:28;101274.72;;;9.40;100.00
4858;BME280;58975;51.978;8.472;2023-05-29T22:20:24;101268.09;;;9.33;100.00
4858;BME280;58975;51.978;8.472;2023-05-29T22:25:23;101272.25;;;9.23;100.00
4858;BME280;58975;51.978;8.472;2023-05-29T22:30:20;101276.31;;;9.14;100.00
4858;BME280;58975;51.978;8.472;2023-05-29T22:35:17;101274.91;;;9.09;100.00
4858;BME280;58975;51.978;8.472;2023-05-29T22:40:13;101280.84;;;8.98;100.00
4858;BME280;58975;51.978;8.472;2023-05-29T22:45:10;101283.41;;;8.85;100.00
4858;BME280;58975;51.978;8.472;2023-05-29T22:50:09;101267.06;;;8.77;100.00
4858;BME280;58975;51.978;8.472;2023-05-29T22:55:06;101278.63;;;8.76;100.00
4858;BME280;58975;51.978;8.472;2023-05-29T23:00:03;101282.47;;;8.71;100.00
4858;BME280;58975;51.978;8.472;2023-05-29T23:05:06;101283.53;;;8.68;100.00
4858;BME280;58975;51.978;8.472;2023-05-29T23:10:03;101279.34;;;8.64;100.00
4858;BME280;58975;51.978;8.472;2023-05-29T23:14:59;101286.13;;;8.54;100.00
4858;BME280;58975;51.978;8.472;2023-05-29T23:19:56;101282.69;;;8.52;100.00
4858;BME280;58975;51.978;8.472;2023-05-29T23:24:53;101276.91;;;8.45;100.00
4858;BME280;58975;51.978;8.472;2023-05-29T23:29:51;101266.16;;;8.47;100.00
4858;BME280;58975;51.978;8.472;2023-05-29T23:34:47;101285.19;;;8.39;100.00
4858;BME280;58975;51.978;8.472;2023-05-29T23:39:44;101284.78;;;8.31;100.00
4858;BME280;58975;51.978;8.472;2023-05-29T23:44:40;101276.97;;;8.28;100.00
4858;BME280;58975;51.978;8.472;2023-05-29T23:49:36;101293.59;;;8.32;100.00
4858;BME280;58975;51.978;8.472;2023-05-29T23:54:33;101296.25;;;8.32;100.00
4858;BME280;58975;51.978;8.472;2023-05-29T23:59:29;101296.50;;;8.43;100.00
